WA0FW-1 Weather Reports


Display with metric or nautical units.
time (UTC)temp
F
wind
direction
speed
MPH
gust
MPH
rain 1hr
in
rain 24hr
in
rain mn
in
humidity
%
barometer
mb
20220817013706 73 0 0.0 0.0 0.00 0.00 0.00 65 1020.5
20220817012806 74 0 0.0 0.0 0.00 0.00 0.00 64 1020.2
20220817011906 74 0 0.0 0.0 0.00 0.00 0.00 64 1020.2
20220817011006 74 0 0.0 0.0 0.00 0.00 0.00 66 1020.2
20220817010106 75 0 0.0 0.0 0.00 0.00 0.00 63 1020.2
20220817005206 75 0 0.0 0.0 0.00 0.00 0.00 65 1020.2
20220817004306 76 0 0.0 0.0 0.00 0.00 0.00 65 1020.2
20220817003406 76 0 0.0 0.0 0.00 0.00 0.00 65 1020.2
20220817002506 77 23 0.0 19.0 0.00 0.00 0.00 66 1020.5
20220817001606 77 23 19.0 19.0 0.00 0.00 0.00 64 1020.5
20220817000706 78 0 0.0 0.0 0.00 0.00 0.00 62 1020.5
20220816235806 78 0 0.0 0.0 0.00 0.00 0.00 64 1020.2
20220816234906 79 0 0.0 0.0 0.00 0.00 0.00 63 1020.2
20220816234006 79 0 0.0 0.0 0.00 0.00 0.00 61 1020.2
20220816233106 79 0 0.0 0.0 0.00 0.00 0.00 62 1020.2
20220816232206 80 0 0.0 0.0 0.00 0.00 0.00 61 1020.2
20220816231306 82 0 0.0 0.0 0.00 0.00 0.00 56 1020.2
20220816230406 83 0 0.0 0.0 0.00 0.00 0.00 55 1019.8
20220816225506 84 292 0.0 26.0 0.00 0.00 0.00 54 1020.2
20220816224606 84 292 26.0 26.0 0.00 0.00 0.00 58 1020.2
20220816223706 82 0 0.0 0.0 0.00 0.00 0.00 58 1019.8
20220816222806 81 0 0.0 0.0 0.00 0.00 0.00 60 1019.8
20220816221905 80 0 0.0 0.0 0.00 0.00 0.00 63 1020.2
20220816221006 79 0 0.0 0.0 0.00 0.00 0.00 65 1020.2
20220816220105 79 0 0.0 0.0 0.00 0.00 0.00 63 1020.2
20220816215205 82 270 0.0 17.0 0.00 0.00 0.00 57 1020.2
20220816214305 85 0 0.0 0.0 0.00 0.00 0.00 56 1020.2
20220816213406 84 156 0.0 21.0 0.00 0.00 0.00 56 1020.2
20220816212505 83 187 21.0 21.0 0.00 0.00 0.00 58 1020.2
20220816211606 87 319 0.0 23.0 0.00 0.00 0.00 53 1020.2
20220816210705 87 10 23.0 23.0 0.00 0.00 0.00 53 1020.2
20220816205805 86 203 0.0 2.0 0.00 0.00 0.00 55 1020.5
20220816204905 86 0 0.0 0.0 0.00 0.00 0.00 53 1020.5
20220816204005 84 181 0.0 22.0 0.00 0.00 0.00 56 1020.2
20220816203105 85 45 0.0 22.0 0.00 0.00 0.00 55 1020.2
20220816202206 84 172 0.0 25.0 0.00 0.00 0.00 57 1020.2
20220816201305 85 205 1.0 25.0 0.00 0.00 0.00 57 1020.5
20220816200405 85 206 2.0 11.0 0.00 0.00 0.00 57 1020.8
20220816195505 85 225 0.0 2.0 0.00 0.00 0.00 56 1020.5
20220816194605 85 0 0.0 0.0 0.00 0.00 0.00 56 1020.5
20220816193705 85 260 0.0 25.0 0.00 0.00 0.00 58 1020.5
20220816192805 83 0 0.0 0.0 0.00 0.00 0.00 60 1020.8
20220816191905 82 181 0.0 1.0 0.00 0.00 0.00 60 1020.8
20220816191005 82 0 0.0 0.0 0.00 0.00 0.00 59 1020.8
20220816190105 83 0 0.0 0.0 0.00 0.00 0.00 60 1020.8
20220816185205 82 0 0.0 0.0 0.00 0.00 0.00 62 1020.8
20220816184305 82 0 0.0 0.0 0.00 0.00 0.00 60 1020.8
20220816183405 80 0 0.0 0.0 0.00 0.00 0.00 63 1021.2
20220816182505 81 0 0.0 0.0 0.00 0.00 0.00 62 1021.2
20220816181605 81 203 0.0 1.0 0.00 0.00 0.00 64 1021.5
20220816180705 80 217 1.0 2.0 0.00 0.00 0.00 63 1021.5
20220816175805 80 0 0.0 0.0 0.00 0.00 0.00 64 1021.2
20220816174905 78 0 0.0 0.0 0.00 0.00 0.00 67 1021.5
20220816174005 78 0 0.0 0.0 0.00 0.00 0.00 67 1021.5
20220816173105 75 23 0.0 2.0 0.00 0.00 0.00 67 1021.5
20220816172205 76 23 2.0 2.0 0.00 0.00 0.00 68 1021.5
20220816171305 76 0 0.0 0.0 0.00 0.00 0.00 67 1021.5
20220816170405 78 0 0.0 0.0 0.00 0.00 0.00 66 1021.5
20220816165505 78 225 0.0 0.0 0.00 0.00 0.00 68 1021.5
20220816164605 76 337 0.0 1.0 0.00 0.00 0.00 70 1021.5
20220816163705 75 0 0.0 0.0 0.00 0.00 0.00 71 1021.5
20220816162805 74 23 0.0 0.0 0.00 0.00 0.00 72 1021.9
20220816161905 72 0 0.0 0.0 0.00 0.00 0.00 75 1021.5
20220816161005 71 1 0.0 1.0 0.00 0.00 0.00 77 1021.5
20220816160105 71 0 0.0 0.0 0.00 0.00 0.00 76 1021.9
20220816155205 71 0 0.0 0.0 0.00 0.00 0.00 78 1021.5
20220816154305 71 0 0.0 0.0 0.00 0.00 0.00 78 1021.9
20220816153405 71 0 0.0 0.0 0.00 0.00 0.00 79 1021.9
20220816152505 71 1 0.0 1.0 0.00 0.00 0.00 78 1021.9
20220816151605 71 1 1.0 1.0 0.00 0.00 0.00 79 1021.9
20220816150704 70 0 0.0 0.0 0.00 0.00 0.00 82 1021.9
20220816145805 69 0 0.0 0.0 0.00 0.00 0.00 83 1021.9
20220816144904 69 0 0.0 0.0 0.00 0.00 0.00 85 1021.9
20220816144005 69 0 0.0 0.0 0.00 0.00 0.00 85 1021.9
20220816143104 69 0 0.0 0.0 0.00 0.00 0.00 86 1021.9
20220816142204 68 0 0.0 0.0 0.00 0.00 0.00 89 1021.9
20220816141305 68 0 0.0 0.0 0.00 0.00 0.00 89 1021.9
20220816140405 67 0 0.0 0.0 0.00 0.00 0.00 90 1021.9
20220816135504 67 0 0.0 0.0 0.00 0.00 0.00 92 1021.9
20220816134605 66 0 0.0 0.0 0.00 0.00 0.00 93 1021.9
20220816133704 65 0 0.0 0.0 0.00 0.00 0.00 94 1021.9
20220816132805 65 0 0.0 0.0 0.00 0.00 0.00 94 1021.5
20220816131904 65 0 0.0 0.0 0.00 0.00 0.00 95 1021.5
20220816131005 65 0 0.0 0.0 0.00 0.00 0.00 95 1021.9
20220816130104 64 0 0.0 0.0 0.00 0.00 0.00 95 1021.5
20220816125204 64 0 0.0 0.0 0.00 0.00 0.00 95 1021.5
20220816124304 64 0 0.0 0.0 0.00 0.00 0.00 95 1021.5
20220816123404 63 0 0.0 0.0 0.00 0.00 0.00 95 1021.5
20220816122504 63 0 0.0 0.0 0.00 0.00 0.00 95 1021.2
20220816121604 63 0 0.0 0.0 0.00 0.00 0.00 95 1021.2
20220816120704 62 0 0.0 0.0 0.00 0.00 0.00 95 1020.8
20220816115804 62 0 0.0 0.0 0.00 0.00 0.00 95 1020.8
20220816114904 62 0 0.0 0.0 0.00 0.00 0.00 95 1020.8
20220816114004 62 0 0.0 0.0 0.00 0.00 0.00 95 1020.8
20220816113104 62 0 0.0 0.0 0.00 0.00 0.00 95 1020.8
20220816112204 62 0 0.0 0.0 0.00 0.00 0.00 95 1020.8
20220816111304 62 0 0.0 0.0 0.00 0.00 0.00 95 1020.8
20220816110404 62 0 0.0 0.0 0.00 0.00 0.00 95 1020.8
20220816105504 61 0 0.0 0.0 0.00 0.00 0.00 95 1020.8
20220816104604 61 0 0.0 0.0 0.00 0.00 0.00 95 1020.8
20220816103704 61 0 0.0 0.0 0.00 0.00 0.00 95 1020.8
20220816102804 61 0 0.0 0.0 0.00 0.00 0.00 95 1020.8
20220816101904 61 0 0.0 0.0 0.00 0.00 0.00 95 1020.8
20220816101004 61 0 0.0 0.0 0.00 0.00 0.00 95 1020.8
20220816100104 61 0 0.0 0.0 0.00 0.00 0.00 95 1020.8
20220816095204 62 0 0.0 0.0 0.00 0.00 0.00 95 1020.8
20220816094304 62 0 0.0 0.0 0.00 0.00 0.00 95 1020.8
20220816093404 62 0 0.0 0.0 0.00 0.00 0.00 95 1020.8
20220816092504 62 0 0.0 0.0 0.00 0.00 0.00 95 1020.8
20220816091604 62 0 0.0 0.0 0.00 0.00 0.00 95 1020.8
20220816090704 61 0 0.0 0.0 0.00 0.00 0.00 94 1020.8
20220816085804 61 0 0.0 0.0 0.00 0.00 0.00 94 1020.5
20220816084904 61 0 0.0 0.0 0.00 0.00 0.00 94 1020.5
20220816084004 61 0 0.0 0.0 0.00 0.00 0.00 94 1020.2
20220816083104 61 0 0.0 0.0 0.00 0.00 0.00 94 1020.5
20220816082204 61 0 0.0 0.0 0.00 0.00 0.00 94 1020.5
20220816081304 61 0 0.0 0.0 0.00 0.00 0.00 94 1020.5
20220816080404 61 0 0.0 0.0 0.00 0.00 0.00 94 1020.5
20220816075504 61 0 0.0 0.0 0.00 0.00 0.00 94 1020.5
20220816074604 61 0 0.0 0.0 0.00 0.00 0.00 94 1020.5
20220816073704 61 0 0.0 0.0 0.00 0.00 0.00 94 1020.2
20220816072804 61 0 0.0 0.0 0.00 0.00 0.00 93 1020.5
20220816071903 61 0 0.0 0.0 0.00 0.00 0.00 93 1020.5
20220816071004 61 0 0.0 0.0 0.00 0.00 0.00 93 1020.5
20220816070104 61 0 0.0 0.0 0.00 0.00 0.00 93 1020.5
20220816065204 61 0 0.0 0.0 0.00 0.00 0.00 93 1020.5
20220816064304 61 0 0.0 0.0 0.00 0.00 0.00 93 1020.5
20220816063404 61 0 0.0 0.0 0.00 0.00 0.00 93 1020.5
20220816062503 61 0 0.0 0.0 0.00 0.00 0.00 93 1020.5
20220816061604 61 0 0.0 0.0 0.00 0.00 0.00 93 1020.8
20220816055909 61 0 0.0 0.0 0.00 0.00 0.00 93 1020.5
20220816055009 61 0 0.0 0.0 0.00 0.00 0.00 92 1020.5
20220816054108 61 0 0.0 0.0 0.00 0.00 0.00 92 1020.5
20220816053209 61 0 0.0 0.0 0.00 0.00 0.00 92 1020.5
20220816052308 62 0 0.0 0.0 0.00 0.00 0.00 92 1020.5
20220816051409 62 0 0.0 0.0 0.00 0.00 0.00 92 1020.5
20220816050508 62 0 0.0 0.0 0.00 0.00 0.00 92 1020.2
20220816045609 62 0 0.0 0.0 0.00 0.00 0.00 91 1019.8
20220816044708 62 0 0.0 0.0 0.00 0.00 0.00 91 1020.2
20220816043809 62 0 0.0 0.0 0.00 0.00 0.00 91 1019.8
20220816042908 62 0 0.0 0.0 0.00 0.00 0.00 91 1020.2
20220816042009 62 0 0.0 0.0 0.00 0.00 0.00 91 1019.8
20220816041108 62 0 0.0 0.0 0.00 0.00 0.00 91 1019.8
20220816040209 62 0 0.0 0.0 0.00 0.00 0.00 90 1019.8
20220816035308 62 0 0.0 0.0 0.00 0.00 0.00 90 1019.8
20220816034408 62 0 0.0 0.0 0.00 0.00 0.00 90 1019.8
20220816033508 62 0 0.0 0.0 0.00 0.00 0.00 89 1019.8
20220816032608 63 0 0.0 0.0 0.00 0.00 0.00 89 1019.8
20220816031708 63 0 0.0 0.0 0.00 0.00 0.00 89 1019.8
20220816030808 63 0 0.0 0.0 0.00 0.00 0.00 89 1019.8
20220816025908 63 0 0.0 0.0 0.00 0.00 0.00 88 1019.5
20220816025008 63 0 0.0 0.0 0.00 0.00 0.00 88 1019.8
20220816024108 63 0 0.0 0.0 0.00 0.00 0.00 87 1019.5
20220816023208 63 0 0.0 0.0 0.00 0.00 0.00 87 1019.5
20220816022308 63 0 0.0 0.0 0.00 0.00 0.00 86 1019.5
20220816021408 64 0 0.0 0.0 0.00 0.00 0.00 85 1019.5
20220816020508 64 0 0.0 0.0 0.00 0.00 0.00 85 1019.5
20220816015608 64 0 0.0 0.0 0.00 0.00 0.00 84 1019.5
20220816014708 64 0 0.0 0.0 0.00 0.00 0.00 83 1019.5